sensor_id;sensor_type;location;lat;lon;timestamp;pressure;altitude;pressure_sealevel;temperature;humidity
15444;BME280;7822;48.146;11.576;2023-05-22T00:00:10;94723.59;;;16.48;74.52
15444;BME280;7822;48.146;11.576;2023-05-22T00:02:39;94727.19;;;16.47;74.46
15444;BME280;7822;48.146;11.576;2023-05-22T00:05:09;94729.63;;;16.48;74.46
15444;BME280;7822;48.146;11.576;2023-05-22T00:07:37;94731.44;;;16.48;74.49
15444;BME280;7822;48.146;11.576;2023-05-22T00:10:07;94728.84;;;16.48;74.59
15444;BME280;7822;48.146;11.576;2023-05-22T00:12:34;94740.09;;;16.48;74.47
15444;BME280;7822;48.146;11.576;2023-05-22T00:15:02;94734.06;;;16.48;74.41
15444;BME280;7822;48.146;11.576;2023-05-22T00:17:30;94737.47;;;16.48;74.40
15444;BME280;7822;48.146;11.576;2023-05-22T00:19:59;94729.63;;;16.48;74.30
15444;BME280;7822;48.146;11.576;2023-05-22T00:22:34;94731.44;;;16.48;74.42
15444;BME280;7822;48.146;11.576;2023-05-22T00:25:01;94728.84;;;16.48;74.41
15444;BME280;7822;48.146;11.576;2023-05-22T00:27:30;94728.84;;;16.48;74.34
15444;BME280;7822;48.146;11.576;2023-05-22T00:29:58;94733.25;;;16.47;74.35
15444;BME280;7822;48.146;11.576;2023-05-22T00:32:26;94734.06;;;16.48;74.38
15444;BME280;7822;48.146;11.576;2023-05-22T00:34:54;94733.25;;;16.47;74.32
15444;BME280;7822;48.146;11.576;2023-05-22T00:37:21;94735.03;;;16.47;74.37
15444;BME280;7822;48.146;11.576;2023-05-22T00:39:50;94731.59;;;16.46;74.35
15444;BME280;7822;48.146;11.576;2023-05-22T00:42:18;94735.03;;;16.47;74.42
15444;BME280;7822;48.146;11.576;2023-05-22T00:44:47;94733.25;;;16.47;74.24
15444;BME280;7822;48.146;11.576;2023-05-22T00:47:15;94733.25;;;16.47;74.30
15444;BME280;7822;48.146;11.576;2023-05-22T00:49:42;94727.19;;;16.47;74.30
15444;BME280;7822;48.146;11.576;2023-05-22T00:52:10;94728.00;;;16.47;74.45
15444;BME280;7822;48.146;11.576;2023-05-22T00:54:39;94721.13;;;16.46;74.50
15444;BME280;7822;48.146;11.576;2023-05-22T00:57:06;94720.31;;;16.46;74.35
15444;BME280;7822;48.146;11.576;2023-05-22T00:59:34;94721.94;;;16.47;74.41
15444;BME280;7822;48.146;11.576;2023-05-22T01:02:03;94730.63;;;16.47;74.44
15444;BME280;7822;48.146;11.576;2023-05-22T01:04:31;94720.31;;;16.46;74.45
15444;BME280;7822;48.146;11.576;2023-05-22T01:07:00;94717.69;;;16.46;74.52
15444;BME280;7822;48.146;11.576;2023-05-22T01:09:28;94726.34;;;16.46;74.58
15444;BME280;7822;48.146;11.576;2023-05-22T01:11:57;94731.59;;;16.46;74.45
15444;BME280;7822;48.146;11.576;2023-05-22T01:14:28;94733.38;;;16.46;74.49
15444;BME280;7822;48.146;11.576;2023-05-22T01:17:00;94742.06;;;16.46;74.53
15444;BME280;7822;48.146;11.576;2023-05-22T01:19:40;94743.88;;;16.46;74.38
15444;BME280;7822;48.146;11.576;2023-05-22T01:22:18;94745.50;;;16.47;74.43
15444;BME280;7822;48.146;11.576;2023-05-22T01:24:56;94740.44;;;16.45;74.47
15444;BME280;7822;48.146;11.576;2023-05-22T01:30:16;94748.31;;;16.45;74.46
15444;BME280;7822;48.146;11.576;2023-05-22T01:32:48;94752.53;;;16.46;74.32
15444;BME280;7822;48.146;11.576;2023-05-22T01:35:16;94753.38;;;16.47;74.27
15444;BME280;7822;48.146;11.576;2023-05-22T01:37:45;94749.09;;;16.46;74.28
15444;BME280;7822;48.146;11.576;2023-05-22T01:40:13;94749.09;;;16.46;74.40
15444;BME280;7822;48.146;11.576;2023-05-22T01:42:40;94750.75;;;16.47;74.25
15444;BME280;7822;48.146;11.576;2023-05-22T01:45:08;94753.38;;;16.47;74.30
15444;BME280;7822;48.146;11.576;2023-05-22T01:47:36;94749.94;;;16.46;74.38
15444;BME280;7822;48.146;11.576;2023-05-22T01:50:05;94752.53;;;16.46;74.32
15444;BME280;7822;48.146;11.576;2023-05-22T01:52:35;94751.56;;;16.47;74.25
15444;BME280;7822;48.146;11.576;2023-05-22T01:55:05;94749.94;;;16.46;74.29
15444;BME280;7822;48.146;11.576;2023-05-22T01:57:41;94758.59;;;16.47;74.29
15444;BME280;7822;48.146;11.576;2023-05-22T02:00:11;94759.44;;;16.47;74.32
15444;BME280;7822;48.146;11.576;2023-05-22T02:02:41;94760.25;;;16.48;74.27
15444;BME280;7822;48.146;11.576;2023-05-22T02:05:11;94766.47;;;16.47;74.27
15444;BME280;7822;48.146;11.576;2023-05-22T02:07:40;94766.47;;;16.47;74.32
15444;BME280;7822;48.146;11.576;2023-05-22T02:10:09;94769.06;;;16.47;74.27
15444;BME280;7822;48.146;11.576;2023-05-22T02:12:37;94763.00;;;16.46;74.36
15444;BME280;7822;48.146;11.576;2023-05-22T02:15:05;94763.00;;;16.46;74.33
15444;BME280;7822;48.146;11.576;2023-05-22T02:17:35;94760.41;;;16.46;74.32
15444;BME280;7822;48.146;11.576;2023-05-22T02:20:06;94757.78;;;16.46;74.32
15444;BME280;7822;48.146;11.576;2023-05-22T02:22:41;94768.25;;;16.46;74.41
15444;BME280;7822;48.146;11.576;2023-05-22T02:25:09;94767.44;;;16.46;74.16
15444;BME280;7822;48.146;11.576;2023-05-22T02:27:40;94758.59;;;16.47;74.29
15444;BME280;7822;48.146;11.576;2023-05-22T02:30:08;94758.78;;;16.45;74.33
15444;BME280;7822;48.146;11.576;2023-05-22T02:32:38;94758.78;;;16.45;74.44
15444;BME280;7822;48.146;11.576;2023-05-22T02:35:06;94764.03;;;16.45;74.37
15444;BME280;7822;48.146;11.576;2023-05-22T02:37:34;94764.81;;;16.46;74.33
15444;BME280;7822;48.146;11.576;2023-05-22T02:40:03;94764.81;;;16.46;74.37
15444;BME280;7822;48.146;11.576;2023-05-22T02:42:31;94766.63;;;16.45;74.20
15444;BME280;7822;48.146;11.576;2023-05-22T02:44:59;94770.88;;;16.46;74.37
15444;BME280;7822;48.146;11.576;2023-05-22T02:47:27;94765.00;;;16.44;74.47
15444;BME280;7822;48.146;11.576;2023-05-22T02:49:54;94769.25;;;16.45;74.31
15444;BME280;7822;48.146;11.576;2023-05-22T02:52:23;94764.03;;;16.45;74.12
15444;BME280;7822;48.146;11.576;2023-05-22T02:54:51;94767.59;;;16.44;74.41
15444;BME280;7822;48.146;11.576;2023-05-22T02:57:19;94767.59;;;16.44;74.36
15444;BME280;7822;48.146;11.576;2023-05-22T02:59:47;94761.53;;;16.44;74.29
15444;BME280;7822;48.146;11.576;2023-05-22T03:02:14;94763.19;;;16.45;74.30
15444;BME280;7822;48.146;11.576;2023-05-22T03:04:42;94755.34;;;16.45;74.36
15444;BME280;7822;48.146;11.576;2023-05-22T03:07:10;94757.97;;;16.45;74.21
15444;BME280;7822;48.146;11.576;2023-05-22T03:09:38;94764.16;;;16.44;74.29
15444;BME280;7822;48.146;11.576;2023-05-22T03:12:07;94761.41;;;16.45;74.31
15444;BME280;7822;48.146;11.576;2023-05-22T03:14:36;94761.41;;;16.45;74.32
15444;BME280;7822;48.146;11.576;2023-05-22T03:17:03;94762.19;;;16.46;74.21
15444;BME280;7822;48.146;11.576;2023-05-22T03:19:31;94764.81;;;16.46;74.16
15444;BME280;7822;48.146;11.576;2023-05-22T03:21:58;94768.25;;;16.46;74.13
15444;BME280;7822;48.146;11.576;2023-05-22T03:24:26;94764.81;;;16.46;74.13
15444;BME280;7822;48.146;11.576;2023-05-22T03:26:53;94766.47;;;16.47;74.15
15444;BME280;7822;48.146;11.576;2023-05-22T03:29:21;94768.25;;;16.46;74.14
15444;BME280;7822;48.146;11.576;2023-05-22T03:31:50;94769.06;;;16.47;74.15
15444;BME280;7822;48.146;11.576;2023-05-22T03:34:17;94765.63;;;16.46;74.03
15444;BME280;7822;48.146;11.576;2023-05-22T03:36:45;94770.88;;;16.46;74.20
15444;BME280;7822;48.146;11.576;2023-05-22T03:39:12;94781.34;;;16.46;73.96
15444;BME280;7822;48.146;11.576;2023-05-22T03:41:40;94766.63;;;16.45;74.21
15444;BME280;7822;48.146;11.576;2023-05-22T03:44:07;94771.06;;;16.45;74.16
15444;BME280;7822;48.146;11.576;2023-05-22T03:46:35;94774.31;;;16.47;74.12
15444;BME280;7822;48.146;11.576;2023-05-22T03:49:04;94763.00;;;16.46;74.32
15444;BME280;7822;48.146;11.576;2023-05-22T03:51:31;94769.25;;;16.45;74.26
15444;BME280;7822;48.146;11.576;2023-05-22T03:53:59;94770.88;;;16.46;74.15
15444;BME280;7822;48.146;11.576;2023-05-22T03:56:26;94770.03;;;16.46;74.29
15444;BME280;7822;48.146;11.576;2023-05-22T03:58:53;94780.53;;;16.46;74.31
15444;BME280;7822;48.146;11.576;2023-05-22T04:01:21;94782.50;;;16.44;74.17
15444;BME280;7822;48.146;11.576;2023-05-22T04:03:49;94783.97;;;16.46;74.20
15444;BME280;7822;48.146;11.576;2023-05-22T04:06:17;94780.53;;;16.46;74.26
15444;BME280;7822;48.146;11.576;2023-05-22T04:08:47;94792.63;;;16.47;74.15
15444;BME280;7822;48.146;11.576;2023-05-22T04:11:14;94784.97;;;16.45;74.17
15444;BME280;7822;48.146;11.576;2023-05-22T04:13:42;94778.72;;;16.46;74.25
15444;BME280;7822;48.146;11.576;2023-05-22T04:16:09;94782.34;;;16.45;74.31
15444;BME280;7822;48.146;11.576;2023-05-22T04:18:37;94787.59;;;16.45;74.32
15444;BME280;7822;48.146;11.576;2023-05-22T04:21:04;94783.13;;;16.46;74.34
15444;BME280;7822;48.146;11.576;2023-05-22T04:23:36;94781.53;;;16.45;74.38
15444;BME280;7822;48.146;11.576;2023-05-22T04:26:05;94782.34;;;16.45;74.37
15444;BME280;7822;48.146;11.576;2023-05-22T04:28:34;94785.94;;;16.44;74.40
15444;BME280;7822;48.146;11.576;2023-05-22T04:31:01;94789.38;;;16.45;74.39
15444;BME280;7822;48.146;11.576;2023-05-22T04:33:31;94793.63;;;16.46;74.47
15444;BME280;7822;48.146;11.576;2023-05-22T04:36:00;94788.38;;;16.46;74.42
15444;BME280;7822;48.146;11.576;2023-05-22T04:38:28;94789.19;;;16.46;74.44
15444;BME280;7822;48.146;11.576;2023-05-22T04:40:57;94796.22;;;16.46;74.33
15444;BME280;7822;48.146;11.576;2023-05-22T04:43:25;94797.06;;;16.46;74.42
15444;BME280;7822;48.146;11.576;2023-05-22T04:45:53;94784.97;;;16.45;74.35
15444;BME280;7822;48.146;11.576;2023-05-22T04:48:21;94793.63;;;16.46;74.31
15444;BME280;7822;48.146;11.576;2023-05-22T04:50:49;94795.25;;;16.47;74.30
15444;BME280;7822;48.146;11.576;2023-05-22T04:53:17;94795.25;;;16.47;74.33
15444;BME280;7822;48.146;11.576;2023-05-22T04:55:44;94797.06;;;16.46;74.45
15444;BME280;7822;48.146;11.576;2023-05-22T04:58:13;94802.28;;;16.46;74.27
15444;BME280;7822;48.146;11.576;2023-05-22T05:00:41;94799.66;;;16.46;74.29
15444;BME280;7822;48.146;11.576;2023-05-22T05:03:08;94805.72;;;16.47;74.25
15444;BME280;7822;48.146;11.576;2023-05-22T05:05:37;94803.13;;;16.47;74.50
15444;BME280;7822;48.146;11.576;2023-05-22T05:08:04;94803.13;;;16.47;74.37
15444;BME280;7822;48.146;11.576;2023-05-22T05:10:32;94807.38;;;16.48;74.29
15444;BME280;7822;48.146;11.576;2023-05-22T05:12:59;94800.50;;;16.47;74.29
15444;BME280;7822;48.146;11.576;2023-05-22T05:15:29;94803.94;;;16.47;74.36
15444;BME280;7822;48.146;11.576;2023-05-22T05:17:56;94797.88;;;16.47;74.33
15444;BME280;7822;48.146;11.576;2023-05-22T05:20:24;94799.66;;;16.46;74.26
15444;BME280;7822;48.146;11.576;2023-05-22T05:22:52;94805.72;;;16.47;74.48
15444;BME280;7822;48.146;11.576;2023-05-22T05:25:20;94799.66;;;16.46;74.32
15444;BME280;7822;48.146;11.576;2023-05-22T05:27:47;94804.91;;;16.46;74.50
15444;BME280;7822;48.146;11.576;2023-05-22T05:30:15;94802.28;;;16.46;74.35
15444;BME280;7822;48.146;11.576;2023-05-22T05:32:47;94803.13;;;16.47;74.48
15444;BME280;7822;48.146;11.576;2023-05-22T05:35:14;94799.66;;;16.46;74.38
15444;BME280;7822;48.146;11.576;2023-05-22T05:37:42;94801.47;;;16.46;74.45
15444;BME280;7822;48.146;11.576;2023-05-22T05:40:10;94806.69;;;16.46;74.50
15444;BME280;7822;48.146;11.576;2023-05-22T05:42:37;94810.97;;;16.47;74.53
15444;BME280;7822;48.146;11.576;2023-05-22T05:45:05;94808.53;;;16.45;74.52
15444;BME280;7822;48.146;11.576;2023-05-22T05:47:33;94811.16;;;16.45;74.50
15444;BME280;7822;48.146;11.576;2023-05-22T05:50:02;94805.09;;;16.45;74.44
15444;BME280;7822;48.146;11.576;2023-05-22T05:52:30;94811.16;;;16.45;74.46
15444;BME280;7822;48.146;11.576;2023-05-22T05:54:58;94810.31;;;16.45;74.52
15444;BME280;7822;48.146;11.576;2023-05-22T05:57:26;94810.31;;;16.45;74.40
15444;BME280;7822;48.146;11.576;2023-05-22T05:59:53;94816.38;;;16.45;74.67
15444;BME280;7822;48.146;11.576;2023-05-22T06:02:21;94816.38;;;16.45;74.49
15444;BME280;7822;48.146;11.576;2023-05-22T06:04:49;94814.56;;;16.46;74.72
15444;BME280;7822;48.146;11.576;2023-05-22T06:07:20;94825.03;;;16.46;74.50
15444;BME280;7822;48.146;11.576;2023-05-22T06:09:47;94825.03;;;16.46;74.56
15444;BME280;7822;48.146;11.576;2023-05-22T06:12:15;94822.41;;;16.46;74.58
15444;BME280;7822;48.146;11.576;2023-05-22T06:14:42;94825.03;;;16.46;74.68
15444;BME280;7822;48.146;11.576;2023-05-22T06:17:10;94816.38;;;16.45;74.55
15444;BME280;7822;48.146;11.576;2023-05-22T06:19:37;94819.00;;;16.45;74.37
15444;BME280;7822;48.146;11.576;2023-05-22T06:22:05;94815.56;;;16.45;74.46
15444;BME280;7822;48.146;11.576;2023-05-22T06:24:34;94818.81;;;16.47;74.66
15444;BME280;7822;48.146;11.576;2023-05-22T06:27:01;94821.44;;;16.47;74.49
15444;BME280;7822;48.146;11.576;2023-05-22T06:29:29;94811.94;;;16.46;74.48
15444;BME280;7822;48.146;11.576;2023-05-22T06:31:56;94816.22;;;16.47;74.45
15444;BME280;7822;48.146;11.576;2023-05-22T06:34:24;94821.44;;;16.47;74.42
15444;BME280;7822;48.146;11.576;2023-05-22T06:36:53;94821.44;;;16.47;74.31
15444;BME280;7822;48.146;11.576;2023-05-22T06:39:20;94823.88;;;16.48;74.35
15444;BME280;7822;48.146;11.576;2023-05-22T06:41:49;94828.31;;;16.48;74.30
15444;BME280;7822;48.146;11.576;2023-05-22T06:44:17;94827.31;;;16.49;74.24
15444;BME280;7822;48.146;11.576;2023-05-22T06:46:44;94828.97;;;16.50;74.13
15444;BME280;7822;48.146;11.576;2023-05-22T06:49:11;94826.34;;;16.50;74.37
15444;BME280;7822;48.146;11.576;2023-05-22T06:51:39;94826.34;;;16.50;74.33
15444;BME280;7822;48.146;11.576;2023-05-22T06:54:06;94826.22;;;16.51;74.28
15444;BME280;7822;48.146;11.576;2023-05-22T06:56:35;94836.81;;;16.50;74.38
15444;BME280;7822;48.146;11.576;2023-05-22T06:59:04;94826.34;;;16.50;74.35
15444;BME280;7822;48.146;11.576;2023-05-22T07:01:31;94831.59;;;16.50;74.49
15444;BME280;7822;48.146;11.576;2023-05-22T07:03:59;94830.63;;;16.51;74.36
15444;BME280;7822;48.146;11.576;2023-05-22T07:06:27;94826.34;;;16.50;74.38
15444;BME280;7822;48.146;11.576;2023-05-22T07:08:57;94833.25;;;16.51;74.33
15444;BME280;7822;48.146;11.576;2023-05-22T07:11:25;94828.97;;;16.50;74.32
15444;BME280;7822;48.146;11.576;2023-05-22T07:13:52;94838.47;;;16.51;74.49
15444;BME280;7822;48.146;11.576;2023-05-22T07:16:22;94837.66;;;16.50;74.37
15444;BME280;7822;48.146;11.576;2023-05-22T07:18:49;94840.28;;;16.50;74.36
15444;BME280;7822;48.146;11.576;2023-05-22T07:21:18;94836.00;;;16.49;74.45
15444;BME280;7822;48.146;11.576;2023-05-22T07:23:49;94836.00;;;16.49;74.39
15444;BME280;7822;48.146;11.576;2023-05-22T07:26:16;94836.81;;;16.50;74.35
15444;BME280;7822;48.146;11.576;2023-05-22T07:28:44;94839.44;;;16.50;74.40
15444;BME280;7822;48.146;11.576;2023-05-22T07:31:11;94837.66;;;16.50;74.44
15444;BME280;7822;48.146;11.576;2023-05-22T07:33:40;94842.06;;;16.50;74.51
15444;BME280;7822;48.146;11.576;2023-05-22T07:36:08;94838.63;;;16.49;74.43
15444;BME280;7822;48.146;11.576;2023-05-22T07:38:36;94841.09;;;16.51;74.39
15444;BME280;7822;48.146;11.576;2023-05-22T07:41:04;94837.78;;;16.49;74.34
15444;BME280;7822;48.146;11.576;2023-05-22T07:43:31;94844.69;;;16.50;74.36
15444;BME280;7822;48.146;11.576;2023-05-22T07:45:59;94836.81;;;16.50;74.40
15444;BME280;7822;48.146;11.576;2023-05-22T07:48:26;94841.25;;;16.49;74.44
15444;BME280;7822;48.146;11.576;2023-05-22T07:50:55;94827.19;;;16.50;74.44
15444;BME280;7822;48.146;11.576;2023-05-22T07:53:23;94841.91;;;16.51;74.40
15444;BME280;7822;48.146;11.576;2023-05-22T07:55:51;94839.44;;;16.50;74.24
15444;BME280;7822;48.146;11.576;2023-05-22T07:58:19;94832.41;;;16.50;74.33
15444;BME280;7822;48.146;11.576;2023-05-22T08:00:49;94834.88;;;16.52;74.35
15444;BME280;7822;48.146;11.576;2023-05-22T08:03:16;94840.13;;;16.52;74.35
15444;BME280;7822;48.146;11.576;2023-05-22T08:05:47;94835.72;;;16.52;74.56
15444;BME280;7822;48.146;11.576;2023-05-22T08:08:16;94834.88;;;16.52;74.52
15444;BME280;7822;48.146;11.576;2023-05-22T08:10:44;94838.31;;;16.52;74.37
15444;BME280;7822;48.146;11.576;2023-05-22T08:13:28;94842.75;;;16.52;74.34
15444;BME280;7822;48.146;11.576;2023-05-22T08:15:56;94844.34;;;16.53;74.35
15444;BME280;7822;48.146;11.576;2023-05-22T08:18:26;94834.72;;;16.53;74.56
15444;BME280;7822;48.146;11.576;2023-05-22T08:20:54;94843.56;;;16.52;74.38
15444;BME280;7822;48.146;11.576;2023-05-22T08:23:23;94830.47;;;16.52;74.41
15444;BME280;7822;48.146;11.576;2023-05-22T08:25:51;94832.28;;;16.52;74.33
15444;BME280;7822;48.146;11.576;2023-05-22T08:28:18;94840.13;;;16.52;74.46
15444;BME280;7822;48.146;11.576;2023-05-22T08:30:46;94831.44;;;16.51;74.41
15444;BME280;7822;48.146;11.576;2023-05-22T08:33:14;94838.47;;;16.51;74.18
15444;BME280;7822;48.146;11.576;2023-05-22T08:35:41;94834.06;;;16.51;74.61
15444;BME280;7822;48.146;11.576;2023-05-22T08:38:09;94830.63;;;16.51;74.38
15444;BME280;7822;48.146;11.576;2023-05-22T08:40:38;94825.38;;;16.51;74.52
15444;BME280;7822;48.146;11.576;2023-05-22T08:43:08;94826.34;;;16.50;74.50
15444;BME280;7822;48.146;11.576;2023-05-22T08:45:36;94828.81;;;16.51;74.38
15444;BME280;7822;48.146;11.576;2023-05-22T08:48:07;94821.94;;;16.50;74.42
15444;BME280;7822;48.146;11.576;2023-05-22T08:50:38;94817.69;;;16.49;74.36
15444;BME280;7822;48.146;11.576;2023-05-22T08:53:07;94817.53;;;16.51;74.52
15444;BME280;7822;48.146;11.576;2023-05-22T08:55:39;94827.19;;;16.50;74.46
15444;BME280;7822;48.146;11.576;2023-05-22T08:58:07;94819.31;;;16.50;74.47
15444;BME280;7822;48.146;11.576;2023-05-22T09:00:37;94818.50;;;16.50;74.47
15444;BME280;7822;48.146;11.576;2023-05-22T09:03:05;94822.91;;;16.49;74.54
15444;BME280;7822;48.146;11.576;2023-05-22T09:05:35;94824.56;;;16.50;74.38
15444;BME280;7822;48.146;11.576;2023-05-22T09:08:04;94815.06;;;16.49;74.52
15444;BME280;7822;48.146;11.576;2023-05-22T09:10:47;94821.13;;;16.50;74.49
15444;BME280;7822;48.146;11.576;2023-05-22T09:13:22;94818.50;;;16.50;74.50
15444;BME280;7822;48.146;11.576;2023-05-22T09:15:50;94814.09;;;16.50;74.48
15444;BME280;7822;48.146;11.576;2023-05-22T09:18:18;94821.94;;;16.50;74.53
15444;BME280;7822;48.146;11.576;2023-05-22T09:20:47;94817.53;;;16.51;74.58
15444;BME280;7822;48.146;11.576;2023-05-22T09:23:14;94812.28;;;16.51;74.61
15444;BME280;7822;48.146;11.576;2023-05-22T09:25:43;94814.75;;;16.52;74.45
15444;BME280;7822;48.146;11.576;2023-05-22T09:28:12;94811.31;;;16.52;74.47
15444;BME280;7822;48.146;11.576;2023-05-22T09:30:40;94814.75;;;16.52;74.56
15444;BME280;7822;48.146;11.576;2023-05-22T09:33:08;94816.38;;;16.53;74.45
15444;BME280;7822;48.146;11.576;2023-05-22T09:35:39;94820.00;;;16.52;74.37
15444;BME280;7822;48.146;11.576;2023-05-22T09:38:07;94816.56;;;16.52;74.42
15444;BME280;7822;48.146;11.576;2023-05-22T09:40:37;94819.81;;;16.54;74.33
15444;BME280;7822;48.146;11.576;2023-05-22T09:43:06;94822.63;;;16.52;74.44
15444;BME280;7822;48.146;11.576;2023-05-22T09:45:35;94827.69;;;16.54;74.44
15444;BME280;7822;48.146;11.576;2023-05-22T09:48:02;94824.22;;;16.53;74.41
15444;BME280;7822;48.146;11.576;2023-05-22T09:50:31;94825.25;;;16.52;74.47
15444;BME280;7822;48.146;11.576;2023-05-22T09:52:59;94819.19;;;16.52;74.49
15444;BME280;7822;48.146;11.576;2023-05-22T09:55:28;94821.78;;;16.52;74.50
15444;BME280;7822;48.146;11.576;2023-05-22T09:57:55;94819.19;;;16.52;74.61
15444;BME280;7822;48.146;11.576;2023-05-22T10:00:23;94819.19;;;16.52;74.48
15444;BME280;7822;48.146;11.576;2023-05-22T10:02:56;94818.34;;;16.51;74.46
15444;BME280;7822;48.146;11.576;2023-05-22T10:05:29;94816.69;;;16.50;74.48
15444;BME280;7822;48.146;11.576;2023-05-22T10:08:00;94818.34;;;16.51;74.61
15444;BME280;7822;48.146;11.576;2023-05-22T10:10:29;94823.59;;;16.51;74.56
15444;BME280;7822;48.146;11.576;2023-05-22T10:12:59;94819.31;;;16.50;74.52
15444;BME280;7822;48.146;11.576;2023-05-22T10:15:27;94811.47;;;16.50;74.50
15444;BME280;7822;48.146;11.576;2023-05-22T10:17:56;94808.03;;;16.50;74.51
15444;BME280;7822;48.146;11.576;2023-05-22T10:20:24;94813.25;;;16.50;74.58
15444;BME280;7822;48.146;11.576;2023-05-22T10:22:53;94812.28;;;16.51;74.51
15444;BME280;7822;48.146;11.576;2023-05-22T10:25:21;94805.41;;;16.50;74.51
15444;BME280;7822;48.146;11.576;2023-05-22T10:27:50;94813.25;;;16.50;74.60
15444;BME280;7822;48.146;11.576;2023-05-22T10:30:19;94810.66;;;16.50;74.70
15444;BME280;7822;48.146;11.576;2023-05-22T10:32:51;94809.81;;;16.49;74.69
15444;BME280;7822;48.146;11.576;2023-05-22T10:35:23;94807.19;;;16.49;74.48
15444;BME280;7822;48.146;11.576;2023-05-22T10:37:52;94803.75;;;16.49;74.51
15444;BME280;7822;48.146;11.576;2023-05-22T10:40:22;94805.41;;;16.50;74.55
15444;BME280;7822;48.146;11.576;2023-05-22T10:42:57;94792.47;;;16.48;74.53
15444;BME280;7822;48.146;11.576;2023-05-22T10:45:25;94807.19;;;16.49;74.38
15444;BME280;7822;48.146;11.576;2023-05-22T10:48:03;94810.66;;;16.50;74.54
15444;BME280;7822;48.146;11.576;2023-05-22T10:50:33;94804.59;;;16.49;74.60
15444;BME280;7822;48.146;11.576;2023-05-22T10:53:19;94804.59;;;16.49;74.55
15444;BME280;7822;48.146;11.576;2023-05-22T10:55:48;94807.06;;;16.51;74.60
15444;BME280;7822;48.146;11.576;2023-05-22T10:58:16;94803.63;;;16.50;74.58
15444;BME280;7822;48.146;11.576;2023-05-22T11:00:44;94806.22;;;16.50;74.62
15444;BME280;7822;48.146;11.576;2023-05-22T11:03:11;94799.34;;;16.49;74.63
15444;BME280;7822;48.146;11.576;2023-05-22T11:05:46;94801.00;;;16.50;74.71
15444;BME280;7822;48.146;11.576;2023-05-22T11:11:12;94792.31;;;16.50;74.61
15444;BME280;7822;48.146;11.576;2023-05-22T11:13:40;94796.59;;;16.51;74.73
15444;BME280;7822;48.146;11.576;2023-05-22T11:16:08;94793.97;;;16.51;74.62
15444;BME280;7822;48.146;11.576;2023-05-22T11:18:37;94792.31;;;16.50;74.74
15444;BME280;7822;48.146;11.576;2023-05-22T11:21:06;94794.78;;;16.51;74.52
15444;BME280;7822;48.146;11.576;2023-05-22T11:23:35;94784.31;;;16.51;74.71
15444;BME280;7822;48.146;11.576;2023-05-22T11:26:16;94793.13;;;16.50;74.59
15444;BME280;7822;48.146;11.576;2023-05-22T11:28:46;94786.09;;;16.51;74.56
15444;BME280;7822;48.146;11.576;2023-05-22T11:31:14;94791.34;;;16.51;74.77
15444;BME280;7822;48.146;11.576;2023-05-22T11:33:43;94790.53;;;16.50;74.65
15444;BME280;7822;48.146;11.576;2023-05-22T11:36:12;94781.03;;;16.49;74.68
15444;BME280;7822;48.146;11.576;2023-05-22T11:38:41;94786.25;;;16.49;74.65
15444;BME280;7822;48.146;11.576;2023-05-22T11:41:08;94781.84;;;16.50;74.64
15444;BME280;7822;48.146;11.576;2023-05-22T11:43:36;94780.88;;;16.51;74.42
15444;BME280;7822;48.146;11.576;2023-05-22T11:46:04;94776.59;;;16.50;74.79
15444;BME280;7822;48.146;11.576;2023-05-22T11:48:33;94780.03;;;16.50;74.60
15444;BME280;7822;48.146;11.576;2023-05-22T11:51:01;94776.59;;;16.50;74.73
15444;BME280;7822;48.146;11.576;2023-05-22T11:53:31;94758.28;;;16.50;74.67
15444;BME280;7822;48.146;11.576;2023-05-22T11:56:02;94764.34;;;16.50;74.62
15444;BME280;7822;48.146;11.576;2023-05-22T11:58:30;94762.69;;;16.49;74.61
15444;BME280;7822;48.146;11.576;2023-05-22T12:00:59;94766.13;;;16.50;74.67
15444;BME280;7822;48.146;11.576;2023-05-22T12:03:26;94774.00;;;16.50;74.54
15444;BME280;7822;48.146;11.576;2023-05-22T12:05:54;94770.53;;;16.49;74.58
15444;BME280;7822;48.146;11.576;2023-05-22T12:08:23;94773.16;;;16.49;74.65
15444;BME280;7822;48.146;11.576;2023-05-22T12:10:52;94760.06;;;16.49;74.67
15444;BME280;7822;48.146;11.576;2023-05-22T12:13:24;94758.28;;;16.50;74.66
15444;BME280;7822;48.146;11.576;2023-05-22T12:15:52;94760.25;;;16.48;74.66
15444;BME280;7822;48.146;11.576;2023-05-22T12:18:19;94763.66;;;16.48;74.69
15444;BME280;7822;48.146;11.576;2023-05-22T12:20:50;94752.22;;;16.49;74.75
15444;BME280;7822;48.146;11.576;2023-05-22T12:23:20;94762.69;;;16.49;74.79
15444;BME280;7822;48.146;11.576;2023-05-22T12:25:55;94754.84;;;16.49;74.72
15444;BME280;7822;48.146;11.576;2023-05-22T12:28:23;94762.69;;;16.49;74.80
15444;BME280;7822;48.146;11.576;2023-05-22T12:30:51;94760.06;;;16.49;74.72
15444;BME280;7822;48.146;11.576;2023-05-22T12:33:19;94754.69;;;16.51;74.71
15444;BME280;7822;48.146;11.576;2023-05-22T12:35:48;94748.63;;;16.50;74.71
15444;BME280;7822;48.146;11.576;2023-05-22T12:38:18;94753.03;;;16.50;74.69
15444;BME280;7822;48.146;11.576;2023-05-22T12:40:46;94751.25;;;16.50;74.74
15444;BME280;7822;48.146;11.576;2023-05-22T12:43:15;94748.63;;;16.50;74.60
15444;BME280;7822;48.146;11.576;2023-05-22T12:45:43;94748.63;;;16.50;74.84
15444;BME280;7822;48.146;11.576;2023-05-22T12:48:10;94741.59;;;16.51;74.76
15444;BME280;7822;48.146;11.576;2023-05-22T12:50:38;94735.53;;;16.50;74.79
15444;BME280;7822;48.146;11.576;2023-05-22T12:53:06;94749.44;;;16.51;74.64
15444;BME280;7822;48.146;11.576;2023-05-22T12:55:34;94738.97;;;16.51;74.79
15444;BME280;7822;48.146;11.576;2023-05-22T12:58:01;94739.78;;;16.51;74.72
15444;BME280;7822;48.146;11.576;2023-05-22T13:00:30;94739.78;;;16.51;74.84
15444;BME280;7822;48.146;11.576;2023-05-22T13:02:58;94731.13;;;16.51;74.76
15444;BME280;7822;48.146;11.576;2023-05-22T13:05:26;94731.25;;;16.49;74.71
15444;BME280;7822;48.146;11.576;2023-05-22T13:07:53;94732.91;;;16.50;74.72
15444;BME280;7822;48.146;11.576;2023-05-22T13:10:21;94732.91;;;16.50;74.86
15444;BME280;7822;48.146;11.576;2023-05-22T13:12:48;94733.75;;;16.51;74.73